createdAt,value
2023-09-06T00:21:05.500Z,12.13
2023-09-06T00:24:50.898Z,12.10
2023-09-06T00:28:44.912Z,12.07
2023-09-06T00:32:29.997Z,12.04
2023-09-06T00:48:07.175Z,11.95
2023-09-06T00:52:01.389Z,11.89
2023-09-06T01:15:32.045Z,11.65
2023-09-06T01:19:25.598Z,11.56
2023-09-06T01:23:19.134Z,11.49
2023-09-06T01:27:12.529Z,11.44
2023-09-06T01:43:05.218Z,11.33
2023-09-06T01:46:52.835Z,11.22
2023-09-06T01:50:25.559Z,11.20
2023-09-06T01:54:20.171Z,11.10
2023-09-06T02:39:12.305Z,10.70
2023-09-06T02:43:06.309Z,10.65
2023-09-06T02:59:04.806Z,10.49
2023-09-06T03:02:57.848Z,10.44
2023-09-06T03:06:49.523Z,10.40
2023-09-06T03:10:37.072Z,10.35
2023-09-06T03:37:45.469Z,10.22
2023-09-06T03:41:38.697Z,10.17
2023-09-06T03:45:29.636Z,10.12
2023-09-06T04:01:35.669Z,10.09
2023-09-06T04:05:25.854Z,10.07
2023-09-06T04:09:13.209Z,10.03
2023-09-06T04:13:04.991Z,10.00
2023-09-06T04:25:06.522Z,10.02
2023-09-06T04:28:57.513Z,9.97
2023-09-06T04:32:51.459Z,9.94
2023-09-06T04:44:46.061Z,10.05
2023-09-06T04:48:41.639Z,10.07
2023-09-06T04:52:34.445Z,10.19
2023-09-06T05:08:23.760Z,10.54
2023-09-06T05:12:16.853Z,10.65
2023-09-06T05:16:11.121Z,10.77
2023-09-06T05:20:33.158Z,10.97
2023-09-06T05:24:25.509Z,11.10
2023-09-06T05:28:17.434Z,11.20
2023-09-06T05:43:54.439Z,11.97
2023-09-06T05:47:48.734Z,12.18
2023-09-06T05:51:43.305Z,12.39
2023-09-06T06:07:26.838Z,13.34
2023-09-06T06:11:19.483Z,13.60
2023-09-06T06:27:00.964Z,14.49
2023-09-06T06:30:53.921Z,14.69
2023-09-06T06:34:33.325Z,14.90
2023-09-06T06:38:25.213Z,15.16
2023-09-06T06:42:04.154Z,15.47
2023-09-06T06:45:53.580Z,15.72
2023-09-06T07:01:09.322Z,16.84
2023-09-06T07:04:52.601Z,17.08
2023-09-06T07:08:07.697Z,17.34
2023-09-06T07:11:38.019Z,17.55
2023-09-06T07:14:40.068Z,17.82
2023-09-06T07:18:10.563Z,18.06
2023-09-06T07:21:47.633Z,18.29
2023-09-06T07:24:45.965Z,18.52
2023-09-06T07:27:47.364Z,18.75
2023-09-06T07:30:56.935Z,19.00
2023-09-06T07:43:21.444Z,19.92
2023-09-06T07:49:39.427Z,20.36
2023-09-06T07:52:39.689Z,20.52
2023-09-06T07:55:32.334Z,20.73
2023-09-06T07:58:08.137Z,20.89
2023-09-06T08:00:59.338Z,21.04
2023-09-06T08:03:48.057Z,21.25
2023-09-06T08:06:26.357Z,21.47
2023-09-06T08:09:10.240Z,21.66
2023-09-06T08:11:58.251Z,21.80
2023-09-06T08:14:43.822Z,22.03
2023-09-06T08:17:51.193Z,22.16
2023-09-06T08:20:33.479Z,22.36
2023-09-06T08:23:10.576Z,22.58
2023-09-06T08:25:44.010Z,22.82
2023-09-06T08:28:20.208Z,22.99
2023-09-06T08:30:52.248Z,23.20
2023-09-06T08:33:41.348Z,23.35
2023-09-06T08:36:11.606Z,23.48
2023-09-06T08:39:02.101Z,23.59
2023-09-06T08:41:36.963Z,23.71
2023-09-06T08:44:19.673Z,23.90
2023-09-06T08:47:35.297Z,24.06
2023-09-06T08:50:16.465Z,24.24
2023-09-06T08:52:50.548Z,24.35
2023-09-06T08:55:32.628Z,24.46
2023-09-06T08:58:12.744Z,24.65
2023-09-06T09:00:48.995Z,24.81
2023-09-06T09:03:19.459Z,24.95
2023-09-06T09:05:50.237Z,25.12
2023-09-06T09:08:40.781Z,25.27
2023-09-06T09:11:10.714Z,25.36
2023-09-06T09:13:42.737Z,25.34
2023-09-06T09:16:14.795Z,25.53
2023-09-06T09:18:47.057Z,25.68
2023-09-06T09:21:17.125Z,25.73
2023-09-06T09:23:59.270Z,25.81
2023-09-06T09:26:29.798Z,26.04
2023-09-06T09:29:05.165Z,26.15
2023-09-06T09:31:35.332Z,26.22
2023-09-06T09:34:08.706Z,26.21
2023-09-06T09:36:40.007Z,26.18
2023-09-06T09:39:15.522Z,26.24
2023-09-06T09:41:57.451Z,26.35
2023-09-06T09:44:30.088Z,26.45
2023-09-06T09:47:28.547Z,26.63
2023-09-06T09:50:06.593Z,26.89
2023-09-06T09:52:37.789Z,27.05
2023-09-06T09:55:10.282Z,27.26
2023-09-06T09:57:42.161Z,27.43
2023-09-06T10:00:17.111Z,27.51
2023-09-06T10:02:49.356Z,27.63
2023-09-06T10:05:18.767Z,27.85
2023-09-06T10:07:50.438Z,27.98
2023-09-06T10:10:21.106Z,28.07
2023-09-06T10:12:53.588Z,28.06
2023-09-06T10:15:26.905Z,28.05
2023-09-06T10:17:58.449Z,28.19
2023-09-06T10:20:32.018Z,28.27
2023-09-06T10:23:07.871Z,28.37
2023-09-06T10:25:50.834Z,28.42
2023-09-06T10:28:32.841Z,28.47
2023-09-06T10:31:10.016Z,28.49
2023-09-06T10:33:43.861Z,28.53
2023-09-06T10:36:21.369Z,28.54
2023-09-06T10:38:54.055Z,28.55
2023-09-06T10:41:28.645Z,28.66
2023-09-06T10:44:09.426Z,28.73
2023-09-06T10:46:41.044Z,28.65
2023-09-06T10:49:15.740Z,28.67
2023-09-06T10:52:10.215Z,28.83
2023-09-06T10:54:42.830Z,29.02
2023-09-06T10:57:17.417Z,29.22
2023-09-06T10:59:58.284Z,29.33
2023-09-06T11:02:29.776Z,29.43
2023-09-06T11:05:11.597Z,29.44
2023-09-06T11:07:51.143Z,29.53
2023-09-06T11:10:25.524Z,29.51
2023-09-06T11:12:59.447Z,29.58
2023-09-06T11:15:37.778Z,29.44
2023-09-06T11:18:07.998Z,29.32
2023-09-06T11:20:39.109Z,29.36
2023-09-06T11:23:10.432Z,29.50
2023-09-06T11:25:40.737Z,29.60
2023-09-06T11:28:21.202Z,29.58
2023-09-06T11:30:52.621Z,29.58
2023-09-06T11:33:32.906Z,29.69
2023-09-06T11:36:05.522Z,29.82
2023-09-06T11:38:36.903Z,29.86
2023-09-06T11:41:10.410Z,30.03
2023-09-06T11:43:44.978Z,30.15
2023-09-06T11:46:15.970Z,30.21
2023-09-06T11:48:48.821Z,30.23
2023-09-06T11:51:25.431Z,30.26
2023-09-06T11:54:02.614Z,30.22
2023-09-06T11:56:37.913Z,30.43
2023-09-06T11:59:16.210Z,30.44
2023-09-06T12:01:46.694Z,30.44
2023-09-06T12:04:20.480Z,30.63
2023-09-06T12:06:53.764Z,30.86
2023-09-06T12:09:25.554Z,30.89
2023-09-06T12:11:55.985Z,30.96
2023-09-06T12:14:26.866Z,30.89
2023-09-06T12:16:58.651Z,30.40
2023-09-06T12:19:29.230Z,30.21
2023-09-06T12:21:59.903Z,30.12
2023-09-06T12:24:30.399Z,30.35
2023-09-06T12:27:02.294Z,30.64
2023-09-06T12:29:32.625Z,30.73
2023-09-06T12:32:02.396Z,30.73
2023-09-06T12:34:33.078Z,30.68
2023-09-06T12:37:04.381Z,30.68
2023-09-06T12:39:34.165Z,30.54
2023-09-06T12:42:08.773Z,30.48
2023-09-06T12:44:39.731Z,30.57
2023-09-06T12:47:09.469Z,30.61
2023-09-06T12:49:39.942Z,30.66
2023-09-06T12:52:12.252Z,30.73
2023-09-06T12:54:42.720Z,30.89
2023-09-06T12:57:13.205Z,30.98
2023-09-06T12:59:43.368Z,31.03
2023-09-06T13:02:13.614Z,31.08
2023-09-06T13:04:44.029Z,31.24
2023-09-06T13:07:14.469Z,31.28
2023-09-06T13:09:44.838Z,31.26
2023-09-06T13:12:15.201Z,31.20
2023-09-06T13:14:45.391Z,31.13
2023-09-06T13:17:14.536Z,31.18
2023-09-06T13:19:45.353Z,31.05
2023-09-06T13:22:15.454Z,30.90
2023-09-06T13:24:47.128Z,30.80
2023-09-06T13:27:17.377Z,30.82
2023-09-06T13:29:47.526Z,30.72
2023-09-06T13:32:17.806Z,30.73
2023-09-06T13:34:48.073Z,30.42
2023-09-06T13:37:20.525Z,30.50
2023-09-06T13:39:49.594Z,30.59
2023-09-06T13:42:20.093Z,30.61
2023-09-06T13:44:49.756Z,30.55
2023-09-06T13:47:19.901Z,30.51
2023-09-06T13:49:52.135Z,30.44
2023-09-06T13:52:22.558Z,30.33
2023-09-06T13:54:52.784Z,30.15
2023-09-06T13:57:24.441Z,29.99
2023-09-06T13:59:59.381Z,30.03
2023-09-06T14:02:30.173Z,30.02
2023-09-06T14:05:00.763Z,29.89
2023-09-06T14:07:34.120Z,29.79
2023-09-06T14:10:03.050Z,29.90
2023-09-06T14:12:32.947Z,30.08
2023-09-06T14:15:03.662Z,30.18
2023-09-06T14:17:33.983Z,30.13
2023-09-06T14:20:05.332Z,29.97
2023-09-06T14:22:35.518Z,29.78
2023-09-06T14:25:06.154Z,29.70
2023-09-06T14:27:36.341Z,29.74
2023-09-06T14:30:07.135Z,29.81
2023-09-06T14:32:37.380Z,29.74
2023-09-06T14:35:10.015Z,29.45
2023-09-06T14:37:40.828Z,29.33
2023-09-06T14:40:11.634Z,29.30
2023-09-06T14:42:44.198Z,29.38
2023-09-06T14:45:14.493Z,29.42
2023-09-06T14:47:45.083Z,29.39
2023-09-06T14:50:18.676Z,29.29
2023-09-06T14:52:53.303Z,29.17
2023-09-06T14:55:22.338Z,29.16
2023-09-06T14:57:52.436Z,29.02
2023-09-06T15:00:23.853Z,28.96
2023-09-06T15:02:57.222Z,28.93
2023-09-06T15:05:28.357Z,28.87
2023-09-06T15:07:58.832Z,28.83
2023-09-06T15:10:33.592Z,28.84
2023-09-06T15:13:06.587Z,28.84
2023-09-06T15:15:35.892Z,28.87
2023-09-06T15:18:06.700Z,28.94
2023-09-06T15:20:38.085Z,28.98
2023-09-06T15:23:07.964Z,28.92
2023-09-06T15:25:37.445Z,28.81
2023-09-06T15:28:07.691Z,28.69
2023-09-06T15:30:37.689Z,28.58
2023-09-06T15:33:08.087Z,28.53
2023-09-06T15:35:39.275Z,28.48
2023-09-06T15:38:09.774Z,28.42
2023-09-06T15:40:40.493Z,28.36
2023-09-06T15:43:10.996Z,28.28
2023-09-06T15:45:40.729Z,28.36
2023-09-06T15:48:13.770Z,28.30
2023-09-06T15:50:44.123Z,28.08
2023-09-06T15:53:14.280Z,27.69
2023-09-06T15:55:44.698Z,27.39
2023-09-06T15:58:14.572Z,27.29
2023-09-06T16:00:44.793Z,27.20
2023-09-06T16:03:16.559Z,27.13
2023-09-06T16:05:47.028Z,27.11
2023-09-06T16:08:17.329Z,27.02
2023-09-06T16:10:47.431Z,26.94
2023-09-06T16:13:17.514Z,26.82
2023-09-06T16:15:50.310Z,26.67
2023-09-06T16:18:20.655Z,26.47
2023-09-06T16:20:50.768Z,26.35
2023-09-06T16:23:20.934Z,26.24
2023-09-06T16:25:51.037Z,26.10
2023-09-06T16:28:21.184Z,25.85
2023-09-06T16:30:51.280Z,25.71
2023-09-06T16:33:21.475Z,25.61
2023-09-06T16:35:51.691Z,25.50
2023-09-06T16:38:22.282Z,25.28
2023-09-06T16:40:53.128Z,24.96
2023-09-06T16:43:22.052Z,24.70
2023-09-06T16:45:52.398Z,24.42
2023-09-06T16:48:27.670Z,24.21
2023-09-06T16:50:57.922Z,24.07
2023-09-06T16:53:28.089Z,23.98
2023-09-06T16:55:58.648Z,23.87
2023-09-06T16:58:28.563Z,23.74
2023-09-06T17:01:00.525Z,23.58
2023-09-06T17:03:31.385Z,23.38
2023-09-06T17:06:02.534Z,23.19
2023-09-06T17:08:35.271Z,23.00
2023-09-06T17:11:08.419Z,22.85
2023-09-06T17:13:38.503Z,22.73
2023-09-06T17:16:08.903Z,22.58
2023-09-06T17:18:47.866Z,22.37
2023-09-06T17:21:22.119Z,22.17
2023-09-06T17:24:03.508Z,22.01
2023-09-06T17:26:38.030Z,21.85
2023-09-06T17:29:16.350Z,21.71
2023-09-06T17:31:50.299Z,21.55
2023-09-06T17:34:28.063Z,21.32
2023-09-06T17:37:17.842Z,21.11
2023-09-06T17:40:00.506Z,20.93
2023-09-06T17:42:42.992Z,20.76
2023-09-06T17:45:16.800Z,20.63
2023-09-06T17:48:24.483Z,20.50
2023-09-06T17:50:59.452Z,20.30
2023-09-06T17:53:58.162Z,20.12
2023-09-06T17:56:41.778Z,19.96
2023-09-06T17:59:31.951Z,19.76
2023-09-06T18:02:21.959Z,19.57
2023-09-06T18:05:03.495Z,19.46
2023-09-06T18:07:53.949Z,19.31
2023-09-06T18:10:53.603Z,19.15
2023-09-06T18:13:46.387Z,18.99
2023-09-06T18:16:46.863Z,18.78
2023-09-06T18:19:50.491Z,18.60
2023-09-06T18:23:08.974Z,18.46
2023-09-06T18:26:29.594Z,18.29
2023-09-06T18:29:36.607Z,18.16
2023-09-06T18:33:04.475Z,17.94
2023-09-06T18:36:29.823Z,17.80
2023-09-06T18:39:44.437Z,17.70
2023-09-06T18:43:18.761Z,17.48
2023-09-06T18:46:57.907Z,17.38
2023-09-06T18:50:31.869Z,17.28
2023-09-06T18:53:45.698Z,17.16
2023-09-06T19:30:04.601Z,16.08
2023-09-06T19:33:57.507Z,15.91
2023-09-06T19:37:50.313Z,15.81
2023-09-06T19:41:42.876Z,15.72
2023-09-06T19:53:35.595Z,15.54
2023-09-06T19:57:27.364Z,15.39
2023-09-06T20:01:20.387Z,15.30
2023-09-06T20:21:00.516Z,14.89
2023-09-06T20:24:53.873Z,14.77
2023-09-06T20:28:47.501Z,14.67
2023-09-06T20:44:24.431Z,14.32
2023-09-06T20:48:09.565Z,14.18
2023-09-06T20:56:01.986Z,14.09
2023-09-06T20:59:54.228Z,13.95
2023-09-06T21:03:45.918Z,13.86
2023-09-06T21:23:19.132Z,13.52
2023-09-06T21:27:12.507Z,13.42
2023-09-06T21:30:40.105Z,13.34
2023-09-06T21:34:22.608Z,13.27
2023-09-06T21:38:40.597Z,13.21
2023-09-06T21:42:33.939Z,13.10
2023-09-06T21:46:27.575Z,13.01
2023-09-06T21:50:19.772Z,12.95
2023-09-06T22:13:35.896Z,12.74
2023-09-06T22:17:28.102Z,12.67
2023-09-06T22:40:47.203Z,12.32
2023-09-06T22:44:39.737Z,12.24
2023-09-06T22:48:48.008Z,12.20
2023-09-06T22:52:29.367Z,12.15
2023-09-06T23:11:52.314Z,11.96
2023-09-06T23:15:46.346Z,11.87
2023-09-06T23:39:36.910Z,11.53
2023-09-06T23:43:31.823Z,11.44
2023-09-06T23:47:24.978Z,11.38
2023-09-06T23:51:17.753Z,11.30
